Time;durP1;ratioP1;P1;durP2;ratioP2;P2;SDS_P1;SDS_P2;PMS_P1;PMS_P2;Temp;Humidity;BMP_temperature;BMP_pressure;BME280_temperature;BME280_humidity;BME280_pressure;Samples;Min_cycle;Max_cycle;Signal;HPM_P1;HPM_P2
2022/04/16 00:02:07;;;;;;;2.75;1.90;;;;;;;19.42;46.93;103240.81;5052357;28;20048;-40
2022/04/16 00:04:34;;;;;;;2.28;1.73;;;;;;;19.43;47.33;103247.06;5051416;28;20051;-40
2022/04/16 00:07:00;;;;;;;2.63;1.60;;;;;;;19.42;46.81;103243.50;5050949;28;20049;-39
2022/04/16 00:09:27;;;;;;;2.97;1.95;;;;;;;19.42;46.89;103239.97;5051114;28;20051;-40
2022/04/16 00:11:54;;;;;;;2.65;2.10;;;;;;;19.42;47.28;103245.34;5053056;28;20047;-40
2022/04/16 00:14:21;;;;;;;4.22;1.98;;;;;;;19.39;47.48;103242.84;5050857;28;20069;-40
2022/04/16 00:16:47;;;;;;;2.55;2.15;;;;;;;19.39;47.35;103242.84;5051670;28;20049;-40
2022/04/16 00:19:14;;;;;;;4.10;2.10;;;;;;;19.37;47.09;103242.94;5052471;28;20044;-39
2022/04/16 00:21:41;;;;;;;2.08;1.70;;;;;;;19.36;47.51;103243.91;5052076;28;20388;-40
2022/04/16 00:24:07;;;;;;;2.03;1.67;;;;;;;19.37;47.12;103244.78;5053758;28;20328;-40
2022/04/16 00:26:40;;;;;;;2.50;1.58;;;;;;;19.36;47.13;103253.81;5052238;28;20051;-40
2022/04/16 00:29:08;;;;;;;4.22;1.70;;;;;;;19.34;47.41;103253.06;5051728;28;20178;-40
2022/04/16 00:31:34;;;;;;;7.05;1.90;;;;;;;19.34;47.56;103258.44;5053922;28;20438;-40
2022/04/16 00:34:01;;;;;;;1.98;1.70;;;;;;;19.32;47.34;103255.00;5051528;28;20041;-40
2022/04/16 00:36:28;;;;;;;1.90;1.58;;;;;;;19.33;47.34;103268.31;5053570;28;20159;-41
2022/04/16 00:38:54;;;;;;;3.08;1.70;;;;;;;19.32;47.40;103263.06;5051709;28;20160;-41
2022/04/16 00:41:23;;;;;;;2.97;1.90;;;;;;;19.31;47.63;103269.41;5052219;28;20045;-41
2022/04/16 00:43:53;;;;;;;3.05;1.95;;;;;;;19.31;47.01;103258.66;5051006;28;20076;-40
2022/04/16 00:46:20;;;;;;;2.58;2.03;;;;;;;19.30;47.07;103267.69;5052346;28;20056;-40
2022/04/16 00:48:47;;;;;;;2.28;1.73;;;;;;;19.29;47.44;103263.25;5051792;28;20130;-40
2022/04/16 00:51:14;;;;;;;3.50;1.92;;;;;;;19.28;47.37;103267.78;5050030;28;20135;-40
2022/04/16 00:53:41;;;;;;;3.88;1.90;;;;;;;19.26;47.37;103269.72;5049867;28;20110;-40
2022/04/16 00:56:10;;;;;;;2.60;1.73;;;;;;;19.24;47.67;103264.44;5051113;28;21366;-41
2022/04/16 00:58:41;;;;;;;2.78;1.65;;;;;;;19.24;47.26;103271.63;5051616;28;20072;-41
2022/04/16 01:01:08;;;;;;;2.28;1.83;;;;;;;19.24;47.22;103269.81;5053156;28;20123;-40
2022/04/16 01:03:35;;;;;;;2.45;1.80;;;;;;;19.23;47.42;103269.91;5052839;28;20116;-40
2022/04/16 01:06:02;;;;;;;4.38;2.00;;;;;;;19.21;47.25;103272.69;5050538;28;20412;-41
2022/04/16 01:08:30;;;;;;;2.72;1.75;;;;;;;19.21;47.03;103274.53;5053467;28;20043;-40
2022/04/16 01:10:57;;;;;;;2.38;1.60;;;;;;;19.20;47.48;103270.97;5034053;28;20124;-40
2022/04/16 01:13:24;;;;;;;2.47;1.80;;;;;;;19.19;47.06;103271.94;5051452;28;20058;-40
2022/04/16 01:15:50;;;;;;;3.35;1.90;;;;;;;19.18;47.04;103270.22;5049131;28;20059;-40
2022/04/16 01:18:17;;;;;;;2.70;1.70;;;;;;;19.18;47.39;103272.06;5050741;28;20047;-40
2022/04/16 01:20:44;;;;;;;3.47;1.83;;;;;;;19.16;47.30;103271.28;5051674;28;20049;-40
2022/04/16 01:23:11;;;;;;;2.35;1.60;;;;;;;19.15;47.47;103273.13;5050989;28;20047;-40
2022/04/16 01:25:38;;;;;;;2.28;1.75;;;;;;;19.15;47.15;103269.56;5050640;28;20041;-40
2022/04/16 01:28:05;;;;;;;2.58;2.08;;;;;;;19.15;47.75;103274.94;5049451;28;20076;-41
2022/04/16 01:30:33;;;;;;;1.95;1.70;;;;;;;19.13;47.66;103277.72;5050091;28;20437;-41
2022/04/16 01:33:03;;;;;;;2.65;2.10;;;;;;;19.13;47.55;103283.09;5051585;28;20081;-40
2022/04/16 01:35:30;;;;;;;2.22;1.75;;;;;;;19.10;47.81;103277.94;5053796;28;20110;-40
2022/04/16 01:37:57;;;;;;;3.13;2.17;;;;;;;19.11;47.23;103281.50;5055454;28;20059;-40
2022/04/16 01:40:25;;;;;;;4.00;2.08;;;;;;;19.11;47.45;103281.50;5054170;28;20049;-40
2022/04/16 01:42:56;;;;;;;2.67;1.85;;;;;;;19.10;47.50;103286.00;5052699;28;20041;-40
2022/04/16 01:45:23;;;;;;;2.92;1.75;;;;;;;19.09;47.63;103286.94;5053825;28;20398;-41
2022/04/16 01:47:50;;;;;;;2.20;1.67;;;;;;;19.12;47.84;103289.44;5055362;28;20049;-40
2022/04/16 01:50:18;;;;;;;1.90;1.67;;;;;;;19.09;48.05;103281.56;5055106;28;20124;-40
2022/04/16 01:52:46;;;;;;;1.85;1.50;;;;;;;19.08;47.69;103277.16;5055255;28;20047;-40
2022/04/16 01:55:13;;;;;;;4.15;2.05;;;;;;;19.08;47.53;103279.84;5052577;28;20135;-40
2022/04/16 01:57:40;;;;;;;2.60;1.90;;;;;;;19.08;47.80;103271.78;5055397;28;20041;-40
2022/04/16 02:00:09;;;;;;;2.85;1.80;;;;;;;19.07;47.73;103274.59;5052427;28;20063;-40
2022/04/16 02:02:36;;;;;;;3.22;2.10;;;;;;;19.05;47.32;103274.66;5037259;28;20148;-40
2022/04/16 02:05:08;;;;;;;2.30;1.75;;;;;;;19.04;47.84;103274.78;5054825;28;20079;-40
2022/04/16 02:07:34;;;;;;;2.88;2.03;;;;;;;19.04;47.34;103278.34;5053234;28;20403;-41
2022/04/16 02:10:02;;;;;;;2.63;2.10;;;;;;;19.03;47.87;103279.31;5053991;28;20044;-40
2022/04/16 02:12:28;;;;;;;2.42;1.70;;;;;;;19.03;47.31;103282.00;5053705;28;20040;-40
2022/04/16 02:14:55;;;;;;;2.10;1.90;;;;;;;19.02;47.51;103280.28;5052900;28;20143;-40
2022/04/16 02:17:23;;;;;;;3.03;2.10;;;;;;;19.01;47.49;103283.91;5054491;28;20052;-41
2022/04/16 02:19:49;;;;;;;3.10;1.80;;;;;;;19.00;47.99;103282.19;5054690;28;20124;-41
2022/04/16 02:22:16;;;;;;;2.40;2.13;;;;;;;18.99;47.29;103283.16;5036988;28;20183;-40
2022/04/16 02:24:46;;;;;;;2.55;1.88;;;;;;;18.97;47.70;103279.69;5054685;28;20041;-40
2022/04/16 02:27:13;;;;;;;2.67;1.90;;;;;;;18.97;47.56;103283.25;5051242;28;20045;-40
2022/04/16 02:29:40;;;;;;;2.63;1.73;;;;;;;18.96;47.51;103283.34;5052408;28;20478;-40
2022/04/16 02:32:07;;;;;;;2.92;2.10;;;;;;;18.95;47.43;103278.94;5054404;28;20481;-40
2022/04/16 02:34:34;;;;;;;3.20;2.10;;;;;;;18.93;47.67;103276.34;5053880;28;20076;-39
2022/04/16 02:37:00;;;;;;;3.30;1.90;;;;;;;18.95;47.67;103289.69;5052899;28;20044;-40
2022/04/16 02:39:27;;;;;;;3.03;2.28;;;;;;;18.91;47.70;103275.59;5051520;28;21640;-40
2022/04/16 02:41:53;;;;;;;2.28;1.80;;;;;;;18.90;47.53;103281.94;5052447;28;20131;-40
2022/04/16 02:47:05;;;;;;;2.70;1.77;;;;;;;18.87;47.74;103282.13;5053399;28;20048;-40
2022/04/16 02:49:34;;;;;;;1.92;1.73;;;;;;;18.85;47.84;103286.72;5053218;28;20087;-40
2022/04/16 02:52:01;;;;;;;2.70;1.83;;;;;;;18.86;48.28;103284.94;5051946;28;20136;-40
2022/04/16 02:54:27;;;;;;;2.55;2.00;;;;;;;18.84;48.03;103287.69;5050956;28;20124;-40
2022/04/16 02:56:55;;;;;;;3.60;2.00;;;;;;;18.84;47.72;103284.16;5053553;28;20135;-40
2022/04/16 02:59:22;;;;;;;2.05;1.70;;;;;;;18.80;47.76;103275.41;5054488;28;20044;-40
2022/04/16 03:01:49;;;;;;;2.05;1.60;;;;;;;18.80;47.71;103285.31;5052566;28;20047;-40
2022/04/16 03:04:15;;;;;;;4.03;2.38;;;;;;;18.80;47.98;103282.63;5053801;28;20049;-40
2022/04/16 03:06:43;;;;;;;5.80;2.30;;;;;;;18.78;47.89;103293.47;5053187;28;20049;-40
2022/04/16 03:09:10;;;;;;;2.20;1.95;;;;;;;18.77;48.32;103294.41;5053309;28;20063;-40
2022/04/16 03:11:36;;;;;;;3.38;2.10;;;;;;;18.76;48.07;103291.84;5052842;28;20131;-40
2022/04/16 03:17:31;;;;;;;4.43;2.28;;;;;;;18.74;48.09;103284.75;5051291;28;20055;-40
2022/04/16 03:19:35;;;;;;;3.70;2.40;;;;;;;18.73;48.02;103284.81;5052552;28;20047;-40
2022/04/16 03:22:01;;;;;;;4.70;3.00;;;;;;;18.72;47.99;103280.44;5051282;28;20640;-40
2022/04/16 03:24:28;;;;;;;3.05;2.03;;;;;;;18.70;47.95;103285.91;5055157;28;20380;-40
2022/04/16 03:26:54;;;;;;;3.83;2.28;;;;;;;18.68;48.23;103279.72;5054838;28;20389;-40
2022/04/16 03:29:21;;;;;;;3.10;2.30;;;;;;;18.69;48.22;103277.91;5053836;28;20072;-40
2022/04/16 03:31:47;;;;;;;3.47;2.30;;;;;;;18.69;47.89;103281.47;5053014;28;20041;-40
2022/04/16 03:34:14;;;;;;;3.03;2.05;;;;;;;18.73;47.88;103284.81;5053245;28;20128;-40
2022/04/16 03:36:40;;;;;;;3.33;2.28;;;;;;;18.76;48.25;103292.69;5052258;28;20447;-40
2022/04/16 03:39:07;;;;;;;3.35;1.85;;;;;;;18.79;47.91;103294.34;5052857;28;20402;-40
2022/04/16 03:41:33;;;;;;;4.03;2.42;;;;;;;18.81;47.78;103297.78;5052869;28;20064;-40
2022/04/16 03:44:00;;;;;;;4.15;2.25;;;;;;;18.84;47.74;103292.22;5052162;28;20128;-40
2022/04/16 03:46:27;;;;;;;4.30;2.70;;;;;;;18.85;47.81;103297.47;5051058;28;20169;-40
2022/04/16 03:48:54;;;;;;;3.05;2.10;;;;;;;18.87;48.01;103297.38;5051557;28;20045;-40
2022/04/16 03:51:20;;;;;;;3.28;2.58;;;;;;;18.88;47.61;103299.97;5051903;28;20309;-40
2022/04/16 03:53:47;;;;;;;3.33;2.45;;;;;;;18.89;47.64;103298.13;5054605;28;20041;-40
2022/04/16 04:01:45;;;;;;;3.30;2.63;;;;;;;18.97;47.55;103303.88;5052417;28;20127;-40
2022/04/16 04:04:12;;;;;;;2.70;2.22;;;;;;;18.98;47.72;103300.25;5050760;28;20045;-40
2022/04/16 04:06:38;;;;;;;3.55;2.53;;;;;;;18.99;47.68;103301.97;5051028;28;20048;-40
2022/04/16 04:09:06;;;;;;;4.30;2.20;;;;;;;18.99;47.29;103301.97;5051912;28;20296;-40
2022/04/16 04:11:33;;;;;;;2.88;2.17;;;;;;;18.99;47.58;103304.66;5051929;28;20048;-40
2022/04/16 04:13:59;;;;;;;3.42;2.30;;;;;;;18.98;47.70;103302.94;5048617;28;20041;-40
2022/04/16 04:16:26;;;;;;;3.15;2.28;;;;;;;18.97;47.18;103303.88;5051755;28;20045;-40
2022/04/16 04:18:52;;;;;;;3.67;2.28;;;;;;;18.96;47.34;103299.47;5051949;28;20049;-40
2022/04/16 04:21:21;;;;;;;3.13;2.35;;;;;;;18.94;46.91;103304.97;5051736;28;20064;-40
2022/04/16 04:23:47;;;;;;;2.65;1.98;;;;;;;18.90;47.41;103306.13;5051054;28;20080;-40
2022/04/16 04:26:14;;;;;;;4.05;2.55;;;;;;;18.88;47.42;103305.34;5051675;28;20131;-40
2022/04/16 04:28:40;;;;;;;4.43;2.70;;;;;;;18.85;47.61;103304.66;5052037;28;20045;-40
2022/04/16 04:31:10;;;;;;;4.07;2.78;;;;;;;18.82;47.89;103315.66;5052910;28;20041;-40
2022/04/16 04:33:37;;;;;;;3.40;2.08;;;;;;;18.80;47.64;103317.56;5053315;28;20041;-40
2022/04/16 04:36:04;;;;;;;3.95;2.60;;;;;;;18.77;47.99;103313.22;5049686;28;20168;-40
2022/04/16 04:38:30;;;;;;;3.90;2.45;;;;;;;18.75;47.56;103317.84;5051239;28;20060;-40
2022/04/16 04:40:58;;;;;;;5.10;2.75;;;;;;;18.71;47.83;103325.25;5051358;28;20048;-40
2022/04/16 04:43:25;;;;;;;5.78;2.90;;;;;;;18.70;47.84;103318.16;5051444;28;20083;-40
2022/04/16 04:45:51;;;;;;;3.40;2.70;;;;;;;18.69;47.98;103320.88;5050877;28;20387;-40
2022/04/16 04:48:18;;;;;;;3.10;2.33;;;;;;;18.71;47.92;103329.75;5053412;28;20049;-40
2022/04/16 04:50:45;;;;;;;3.38;2.20;;;;;;;18.74;47.89;103330.44;5049079;28;20059;-40
2022/04/16 04:53:12;;;;;;;3.35;2.42;;;;;;;18.77;47.80;103328.50;5053781;28;20124;-40
2022/04/16 04:55:38;;;;;;;3.00;2.45;;;;;;;18.79;47.39;103337.31;5051354;28;20136;-40
2022/04/16 04:58:05;;;;;;;4.05;2.55;;;;;;;18.81;47.79;103330.00;5051774;28;20041;-40
2022/04/16 05:00:31;;;;;;;4.03;2.70;;;;;;;18.81;47.61;103333.56;5049350;28;20056;-40
2022/04/16 05:02:58;;;;;;;3.25;2.33;;;;;;;18.83;47.55;103334.34;5049759;28;20041;-40
2022/04/16 05:05:25;;;;;;;3.17;2.40;;;;;;;18.82;47.24;103338.00;5049453;28;20045;-40
2022/04/16 05:07:51;;;;;;;4.30;2.40;;;;;;;18.83;47.49;103336.16;5049359;28;20135;-40
2022/04/16 05:10:18;;;;;;;4.00;2.58;;;;;;;18.82;47.59;103331.78;5050654;28;20043;-40
2022/04/16 05:12:44;;;;;;;2.50;2.30;;;;;;;18.82;47.63;103338.00;5051415;28;20057;-40
2022/04/16 05:15:11;;;;;;;3.58;2.67;;;;;;;18.81;47.45;103332.69;5050568;28;20052;-39
2022/04/16 05:17:38;;;;;;;3.20;2.28;;;;;;;18.84;47.25;103340.56;5049584;28;20152;-40
2022/04/16 05:20:09;;;;;;;2.78;2.42;;;;;;;18.86;47.48;103344.03;5049024;28;20120;-40
2022/04/16 05:22:36;;;;;;;3.97;2.75;;;;;;;18.87;47.41;103352.00;5048668;28;20076;-40
2022/04/16 05:25:02;;;;;;;3.03;2.42;;;;;;;18.88;47.62;103352.84;5052684;28;20123;-40
2022/04/16 05:27:30;;;;;;;4.82;2.58;;;;;;;18.89;47.57;103350.06;5051869;28;20041;-40
2022/04/16 05:30:06;;;;;;;3.72;2.85;;;;;;;18.91;47.29;103350.84;5050344;28;20052;-40
2022/04/16 05:32:37;;;;;;;3.65;2.88;;;;;;;18.91;47.48;103358.91;5049447;28;20408;-40
2022/04/16 05:35:05;;;;;;;3.45;2.30;;;;;;;18.91;47.64;103360.72;5049990;28;20063;-40
2022/04/16 05:37:32;;;;;;;3.63;2.67;;;;;;;18.91;47.08;103364.28;5050173;28;20588;-40
2022/04/16 05:39:58;;;;;;;4.03;2.55;;;;;;;18.90;47.22;103370.63;5050625;28;20056;-40
2022/04/16 05:42:25;;;;;;;3.65;2.72;;;;;;;18.89;47.26;103378.75;5048726;28;20041;-40
2022/04/16 05:44:51;;;;;;;3.80;2.40;;;;;;;18.87;47.39;103372.63;5050360;28;20071;-40
2022/04/16 05:47:18;;;;;;;3.40;2.55;;;;;;;18.87;47.41;103378.88;5049562;28;20132;-40
2022/04/16 05:49:45;;;;;;;3.92;2.80;;;;;;;18.85;47.41;103375.41;5051427;28;20399;-41
2022/04/16 05:52:11;;;;;;;3.90;2.55;;;;;;;18.84;47.47;103378.19;5049494;28;20048;-40
2022/04/16 05:54:38;;;;;;;4.43;2.70;;;;;;;18.82;47.40;103378.31;5050383;28;20488;-40
2022/04/16 05:57:07;;;;;;;4.90;2.67;;;;;;;18.81;47.61;103375.69;5050162;28;20043;-40
2022/04/16 05:59:33;;;;;;;3.42;2.70;;;;;;;18.79;47.37;103378.50;5049032;28;20049;-40
2022/04/16 06:02:00;;;;;;;3.35;2.42;;;;;;;18.78;47.66;103383.97;5051648;28;20045;-40
2022/04/16 06:04:27;;;;;;;3.35;2.50;;;;;;;18.78;47.76;103378.59;5052030;28;20041;-40
2022/04/16 06:06:53;;;;;;;4.60;2.63;;;;;;;18.76;47.72;103380.50;5049646;28;20048;-41
2022/04/16 06:09:20;;;;;;;6.60;2.70;;;;;;;18.77;47.55;103390.28;5052375;28;20045;-40
2022/04/16 06:11:48;;;;;;;5.50;3.17;;;;;;;18.76;47.26;103385.88;5050363;28;20052;-40
2022/04/16 06:14:15;;;;;;;4.10;2.70;;;;;;;18.74;47.63;103391.34;5048778;28;20043;-40
2022/04/16 06:16:42;;;;;;;3.20;2.65;;;;;;;18.74;47.59;103394.03;5048280;28;20091;-40
2022/04/16 06:19:08;;;;;;;3.17;2.65;;;;;;;18.74;47.35;103399.41;5050702;28;20372;-40
2022/04/16 06:21:35;;;;;;;6.95;3.30;;;;;;;18.73;47.82;103397.66;5054612;28;20131;-40
2022/04/16 06:24:01;;;;;;;3.72;2.50;;;;;;;18.72;47.55;103404.88;5053743;28;20052;-40
2022/04/16 06:26:28;;;;;;;4.03;2.45;;;;;;;18.72;47.61;103395.94;5054447;28;20154;-40
2022/04/16 06:28:54;;;;;;;3.35;2.72;;;;;;;18.73;47.49;103400.34;5052284;28;20407;-39
2022/04/16 06:31:21;;;;;;;4.55;2.67;;;;;;;18.72;47.85;103399.50;5051246;28;20048;-40
2022/04/16 06:33:48;;;;;;;3.22;2.35;;;;;;;18.74;47.70;103404.78;5055513;28;20045;-40
2022/04/16 06:36:15;;;;;;;5.97;3.10;;;;;;;18.74;47.73;103399.41;5054899;28;20131;-39
2022/04/16 06:38:42;;;;;;;3.17;2.67;;;;;;;18.73;47.42;103412.00;5053948;28;20069;-39
2022/04/16 06:41:09;;;;;;;3.55;2.63;;;;;;;18.75;48.05;103409.19;5053915;28;20059;-40
2022/04/16 06:43:35;;;;;;;2.90;2.35;;;;;;;18.76;47.49;103408.22;5035103;28;20073;-41
2022/04/16 06:46:03;;;;;;;4.65;3.33;;;;;;;18.76;47.56;103410.91;5053110;28;20266;-40
2022/04/16 06:48:29;;;;;;;3.70;3.03;;;;;;;18.78;47.22;103408.16;5053738;28;20103;-40
2022/04/16 06:50:56;;;;;;;4.82;3.20;;;;;;;18.82;47.35;103417.75;5053701;28;20609;-40
2022/04/16 06:53:25;;;;;;;4.65;3.10;;;;;;;18.86;47.16;103416.59;5053686;28;20127;-39
2022/04/16 06:55:52;;;;;;;4.93;3.13;;;;;;;18.89;47.01;103421.75;5053304;28;20420;-39
2022/04/16 06:58:19;;;;;;;3.15;2.83;;;;;;;18.91;47.15;103425.22;5054533;28;20132;-39
2022/04/16 07:00:45;;;;;;;4.88;3.80;;;;;;;18.94;47.12;103425.91;5053553;28;20045;-39
2022/04/16 07:03:13;;;;;;;5.25;3.50;;;;;;;18.97;47.01;103427.50;5052766;28;20076;-39
2022/04/16 07:05:40;;;;;;;5.18;3.65;;;;;;;18.98;46.98;103430.13;5053656;28;20110;-39
2022/04/16 07:08:07;;;;;;;4.75;3.53;;;;;;;18.99;47.26;103429.16;5052253;28;20331;-39
2022/04/16 07:10:33;;;;;;;6.57;4.25;;;;;;;19.02;46.97;103429.94;5052852;28;20148;-39
2022/04/16 07:13:00;;;;;;;5.55;4.13;;;;;;;19.03;46.80;103427.13;5052126;28;20051;-39
2022/04/16 07:15:26;;;;;;;5.32;3.75;;;;;;;19.03;46.46;103427.13;5052345;28;20041;-39
2022/04/16 07:17:53;;;;;;;6.38;4.05;;;;;;;19.03;47.20;103429.81;5051845;28;20132;-39
2022/04/16 07:20:19;;;;;;;7.38;4.50;;;;;;;19.05;46.10;103424.34;5049751;28;20041;-40
2022/04/16 07:22:46;;;;;;;7.68;4.35;;;;;;;19.05;46.92;103427.88;5050708;28;20443;-40
2022/04/16 07:25:13;;;;;;;7.05;4.40;;;;;;;19.06;46.41;103429.63;5050917;28;20047;-40
2022/04/16 07:27:42;;;;;;;5.95;4.65;;;;;;;19.06;46.17;103426.94;5050613;28;20143;-40
2022/04/16 07:30:09;;;;;;;5.07;4.07;;;;;;;19.08;46.58;103433.06;5051717;28;20709;-40
2022/04/16 07:32:36;;;;;;;7.10;4.78;;;;;;;19.09;46.22;103431.25;5051787;28;20147;-39
2022/04/16 07:35:03;;;;;;;5.60;4.47;;;;;;;19.09;46.33;103437.47;5053732;28;20048;-40
2022/04/16 07:37:29;;;;;;;6.47;4.50;;;;;;;19.10;46.64;103441.91;5052703;28;20104;-40
2022/04/16 07:39:56;;;;;;;6.63;4.47;;;;;;;19.09;46.60;103433.94;5053344;28;20288;-40
2022/04/16 07:42:26;;;;;;;6.72;4.60;;;;;;;19.09;46.24;103434.78;5049486;28;20044;-40
2022/04/16 07:44:56;;;;;;;6.35;4.60;;;;;;;19.10;46.00;103436.53;5051847;28;20131;-40
2022/04/16 07:47:23;;;;;;;8.73;5.13;;;;;;;19.11;45.77;103437.41;5052605;28;20040;-40
2022/04/16 07:49:50;;;;;;;5.75;4.47;;;;;;;19.12;46.34;103441.81;5051582;28;20339;-40
2022/04/16 07:52:17;;;;;;;5.50;4.50;;;;;;;19.12;46.60;103442.66;5048715;28;20127;-38
2022/04/16 07:54:43;;;;;;;8.63;4.53;;;;;;;19.12;45.91;103439.97;5051325;28;20036;-38
2022/04/16 07:57:13;;;;;;;7.07;5.60;;;;;;;19.14;46.05;103440.75;5050679;28;20136;-39
2022/04/16 07:59:40;;;;;;;7.43;4.75;;;;;;;19.14;46.45;103437.22;5052356;28;20041;-39
2022/04/16 08:02:06;;;;;;;6.20;4.78;;;;;;;19.15;46.07;103437.09;5053718;28;20041;-39
2022/04/16 08:04:33;;;;;;;6.60;4.57;;;;;;;19.15;46.57;103445.19;5051887;28;20041;-39
2022/04/16 08:06:59;;;;;;;5.93;4.18;;;;;;;19.15;46.48;103434.41;5052412;28;20083;-38
2022/04/16 08:09:26;;;;;;;6.22;4.38;;;;;;;19.15;46.71;103439.78;5050528;28;20652;-39
2022/04/16 08:11:52;;;;;;;5.60;4.32;;;;;;;19.17;46.48;103439.69;5054031;28;20318;-39
2022/04/16 08:14:20;;;;;;;8.05;4.85;;;;;;;19.17;46.51;103445.91;5050075;28;20033;-39
2022/04/16 08:16:47;;;;;;;7.38;4.55;;;;;;;19.17;46.14;103445.91;5050387;28;20056;-39
2022/04/16 08:19:13;;;;;;;6.85;4.97;;;;;;;19.19;46.22;103448.53;5049103;28;20483;-39
2022/04/16 08:21:41;;;;;;;5.93;4.32;;;;;;;19.20;46.48;103445.75;5051788;28;20045;-39
2022/04/16 08:24:22;;;;;;;6.65;4.43;;;;;;;19.21;46.44;103442.06;5050031;28;20136;-39
2022/04/16 08:26:48;;;;;;;5.88;4.50;;;;;;;19.22;46.43;103446.53;5054906;28;20139;-39
2022/04/16 08:29:15;;;;;;;5.38;3.50;;;;;;;19.25;46.42;103450.81;5052746;28;20063;-38
2022/04/16 08:31:41;;;;;;;5.85;3.97;;;;;;;19.27;46.30;103453.44;5051181;28;20045;-39
2022/04/16 08:34:28;;;;;;;6.13;4.25;;;;;;;19.28;46.71;103449.78;5051489;28;20042;-39
2022/04/16 08:36:54;;;;;;;5.50;4.13;;;;;;;19.30;46.89;103453.25;5051686;28;20045;-40
2022/04/16 08:39:21;;;;;;;5.82;4.45;;;;;;;19.31;46.19;103453.13;5051876;28;20131;-40
2022/04/16 08:41:49;;;;;;;6.18;4.28;;;;;;;19.33;47.01;103445.81;5051361;28;20049;-40
2022/04/16 08:44:19;;;;;;;6.63;4.47;;;;;;;19.35;46.18;103451.09;5050195;28;20136;-40
2022/04/16 08:46:45;;;;;;;6.50;4.18;;;;;;;19.36;46.45;103453.69;5052025;28;20045;-39
2022/04/16 08:49:14;;;;;;;6.15;4.63;;;;;;;19.37;46.49;103452.72;5051990;28;20055;-39
2022/04/16 08:51:42;;;;;;;6.43;4.43;;;;;;;19.40;46.31;103462.41;5051547;28;20080;-39
2022/04/16 08:54:09;;;;;;;6.38;4.25;;;;;;;19.43;46.89;103463.09;5054332;28;20037;-39
2022/04/16 08:56:36;;;;;;;6.80;4.20;;;;;;;19.44;46.26;103462.13;5052228;28;20044;-39
2022/04/16 08:59:02;;;;;;;6.18;3.97;;;;;;;19.47;46.69;103456.56;5051075;28;20049;-39
2022/04/16 09:01:29;;;;;;;6.72;4.65;;;;;;;19.48;46.92;103455.59;5051896;28;20045;-39
2022/04/16 09:03:58;;;;;;;6.00;3.90;;;;;;;19.52;46.35;103461.63;5051500;28;20040;-39
2022/04/16 09:06:25;;;;;;;6.00;3.80;;;;;;;19.53;47.10;103447.22;5052717;28;20036;-39
2022/04/16 09:08:52;;;;;;;6.85;3.90;;;;;;;19.55;46.43;103450.69;5051821;28;20053;-39
2022/04/16 09:11:24;;;;;;;4.47;3.42;;;;;;;19.58;46.93;103450.47;5051962;28;20057;-40
2022/04/16 09:13:54;;;;;;;6.25;3.67;;;;;;;19.60;46.54;103450.38;5050438;28;20454;-39
2022/04/16 09:16:21;;;;;;;5.95;3.78;;;;;;;19.62;46.62;103451.19;5049862;28;20102;-39
2022/04/16 09:18:55;;;;;;;4.45;3.70;;;;;;;19.63;46.44;103442.13;5050954;28;20064;-39
2022/04/16 09:21:26;;;;;;;5.55;3.97;;;;;;;19.65;46.86;103449.13;5050814;28;20449;-40
2022/04/16 09:24:01;;;;;;;4.72;3.58;;;;;;;19.68;47.00;103440.00;5049741;28;20139;-40
2022/04/16 09:26:35;;;;;;;4.78;3.50;;;;;;;19.70;46.30;103436.25;5050311;28;20072;-39
2022/04/16 09:29:12;;;;;;;4.30;3.80;;;;;;;19.73;46.23;103429.78;5051900;28;20075;-39
2022/04/16 09:31:41;;;;;;;4.35;3.30;;;;;;;19.76;46.94;103432.28;5050814;28;20186;-40
2022/04/16 09:34:16;;;;;;;4.70;3.55;;;;;;;19.81;46.42;103440.03;5051302;28;20072;-40
2022/04/16 09:36:44;;;;;;;6.45;3.78;;;;;;;19.84;46.70;103440.72;5050655;28;20041;-40
2022/04/16 09:39:11;;;;;;;5.60;3.85;;;;;;;19.88;45.88;103441.38;5049017;28;20048;-40
2022/04/16 09:41:40;;;;;;;5.40;3.78;;;;;;;19.93;46.12;103444.59;5051419;28;20041;-40
2022/04/16 09:44:35;;;;;;;5.60;3.50;;;;;;;19.99;46.32;103441.53;5050047;28;20412;-40
2022/04/16 09:47:03;;;;;;;5.50;3.30;;;;;;;20.04;45.79;103433.97;5029995;28;20045;-40
2022/04/16 09:49:33;;;;;;;5.32;3.38;;;;;;;20.08;46.44;103431.94;5051102;28;20065;-40
2022/04/16 09:52:05;;;;;;;5.07;3.75;;;;;;;20.12;46.57;103431.63;5050482;28;20054;-40
2022/04/16 09:54:33;;;;;;;5.32;3.13;;;;;;;20.17;45.47;103431.31;5050679;28;20044;-40
2022/04/16 09:57:03;;;;;;;4.13;2.97;;;;;;;20.21;45.50;103430.13;5053933;28;20132;-41
2022/04/16 09:59:35;;;;;;;5.10;3.42;;;;;;;20.25;45.72;103426.25;5053477;28;20082;-41
2022/04/16 10:02:03;;;;;;;5.28;3.20;;;;;;;20.29;45.76;103433.16;5055890;28;20408;-41
2022/04/16 10:04:31;;;;;;;3.67;2.78;;;;;;;20.31;45.75;103428.56;5053970;28;20127;-40
2022/04/16 10:06:57;;;;;;;3.45;2.80;;;;;;;20.33;46.10;103421.22;5053605;28;20343;-40
2022/04/16 10:09:24;;;;;;;4.40;2.85;;;;;;;20.36;45.49;103421.00;5052950;28;20317;-40
2022/04/16 10:15:00;;;;;;;5.13;2.70;;;;;;;20.41;45.77;103415.28;5053783;28;20055;-41
2022/04/16 10:17:39;;;;;;;3.75;2.35;;;;;;;20.44;45.47;103423.16;5040179;28;20137;-40
2022/04/16 10:20:16;;;;;;;4.75;2.90;;;;;;;20.45;45.88;103419.50;5055146;28;20069;-40
2022/04/16 10:23:12;;;;;;;3.78;2.63;;;;;;;20.46;45.42;103411.34;5055296;28;20049;-41
2022/04/16 10:25:44;;;;;;;3.50;2.60;;;;;;;20.50;45.63;103414.69;5036069;28;20055;-42
2022/04/16 10:28:23;;;;;;;3.80;2.40;;;;;;;20.50;45.52;103417.38;5053837;28;20132;-41
2022/04/16 10:30:52;;;;;;;4.13;2.83;;;;;;;20.51;45.54;103419.13;5052742;28;20155;-41
2022/04/16 10:33:23;;;;;;;4.07;3.17;;;;;;;20.52;45.60;103406.50;5052136;28;20049;-40
2022/04/16 10:35:57;;;;;;;3.20;2.53;;;;;;;20.53;45.35;103416.31;5055173;28;20053;-41
2022/04/16 10:38:34;;;;;;;3.10;2.38;;;;;;;20.55;45.07;103412.53;5053892;28;20450;-41
2022/04/16 10:41:22;;;;;;;3.90;2.38;;;;;;;20.59;44.92;103411.34;5053891;28;20124;-41
2022/04/16 10:44:01;;;;;;;3.10;2.35;;;;;;;20.62;44.95;103416.53;5053160;28;20041;-42
2022/04/16 10:46:44;;;;;;;3.20;2.55;;;;;;;20.64;45.23;103397.56;5054127;28;20045;-42
2022/04/16 10:49:22;;;;;;;3.22;2.28;;;;;;;20.68;44.87;103399.91;5050696;28;20417;-42
2022/04/16 10:51:55;;;;;;;3.47;2.35;;;;;;;20.71;44.96;103390.78;5054475;28;20053;-39
2022/04/16 10:54:32;;;;;;;2.63;2.10;;;;;;;20.73;44.81;103396.03;5050585;28;20040;-39
2022/04/16 10:56:59;;;;;;;3.42;2.33;;;;;;;20.74;44.83;103401.31;5051795;28;20432;-39
2022/04/16 10:59:41;;;;;;;4.00;2.30;;;;;;;20.74;45.41;103395.06;5053357;28;20156;-41
2022/04/16 11:02:26;;;;;;;2.60;2.00;;;;;;;20.75;44.91;103386.03;5050614;28;20123;-42
2022/04/16 11:05:08;;;;;;;2.80;2.08;;;;;;;20.78;44.74;103393.88;5053005;28;20095;-40
2022/04/16 11:07:36;;;;;;;3.53;2.35;;;;;;;20.79;44.56;103401.00;5051319;28;20413;-39
2022/04/16 11:10:05;;;;;;;3.08;1.90;;;;;;;20.81;45.17;103393.66;5050141;28;20056;-39
2022/04/16 11:12:32;;;;;;;2.45;2.20;;;;;;;20.82;44.39;103390.84;5052712;28;20390;-39
2022/04/16 11:15:01;;;;;;;2.65;1.95;;;;;;;20.84;44.88;103393.44;5051383;28;20460;-39
2022/04/16 11:17:28;;;;;;;2.63;1.98;;;;;;;20.86;44.56;103386.09;5051626;28;20047;-39
2022/04/16 11:20:05;;;;;;;3.30;2.33;;;;;;;20.86;44.56;103397.72;5052466;28;20045;-39
2022/04/16 11:22:32;;;;;;;3.30;2.13;;;;;;;20.89;45.05;103385.88;5056475;28;20048;-40
2022/04/16 11:25:00;;;;;;;2.58;2.00;;;;;;;20.89;44.49;103392.13;5033415;28;20076;-39
2022/04/16 11:35:59;;;;;;;2.42;1.85;;;;;;;20.95;44.42;103390.84;5052219;28;20072;-40
2022/04/16 11:38:34;;;;;;;2.70;1.90;;;;;;;20.97;44.83;103390.72;5051859;28;20045;-40
2022/04/16 11:41:04;;;;;;;2.33;1.90;;;;;;;20.98;44.66;103389.72;5053092;28;20120;-40
2022/04/16 11:43:33;;;;;;;1.98;1.67;;;;;;;20.98;44.34;103385.19;5050931;28;20076;-40
2022/04/16 11:46:04;;;;;;;2.03;1.42;;;;;;;20.99;44.49;103386.09;5049424;28;20079;-40
2022/04/16 11:48:31;;;;;;;2.00;1.55;;;;;;;21.00;44.84;103388.66;5053464;28;20041;-40
2022/04/16 11:50:58;;;;;;;2.92;2.10;;;;;;;21.01;44.31;103379.59;5051368;28;20429;-41
2022/04/16 11:53:25;;;;;;;1.45;1.27;;;;;;;21.02;44.71;103378.63;5051673;28;20128;-40